sensor_id;sensor_type;location;lat;lon;timestamp;temperature;humidity
51007;DHT22;37034;47.886;-3.904;2023-04-24T00:00:35;13.70;90.90
51007;DHT22;37034;47.886;-3.904;2023-04-24T00:03:01;13.70;90.90
51007;DHT22;37034;47.886;-3.904;2023-04-24T00:05:28;13.70;90.90
51007;DHT22;37034;47.886;-3.904;2023-04-24T00:07:54;13.60;91.00
51007;DHT22;37034;47.886;-3.904;2023-04-24T00:10:20;13.70;91.00
51007;DHT22;37034;47.886;-3.904;2023-04-24T00:12:47;13.60;91.00
51007;DHT22;37034;47.886;-3.904;2023-04-24T00:15:13;13.60;91.00
51007;DHT22;37034;47.886;-3.904;2023-04-24T00:17:38;13.60;91.10
51007;DHT22;37034;47.886;-3.904;2023-04-24T00:20:05;13.60;91.20
51007;DHT22;37034;47.886;-3.904;2023-04-24T00:22:33;13.60;91.20
51007;DHT22;37034;47.886;-3.904;2023-04-24T00:24:58;13.60;91.20
51007;DHT22;37034;47.886;-3.904;2023-04-24T00:27:24;13.60;91.20
51007;DHT22;37034;47.886;-3.904;2023-04-24T00:29:50;13.60;91.20
51007;DHT22;37034;47.886;-3.904;2023-04-24T00:32:16;13.60;91.20
51007;DHT22;37034;47.886;-3.904;2023-04-24T00:34:42;13.60;91.20
51007;DHT22;37034;47.886;-3.904;2023-04-24T00:37:08;13.60;91.40
51007;DHT22;37034;47.886;-3.904;2023-04-24T00:39:34;13.60;91.30
51007;DHT22;37034;47.886;-3.904;2023-04-24T00:41:59;13.50;91.40
51007;DHT22;37034;47.886;-3.904;2023-04-24T00:44:27;13.50;91.40
51007;DHT22;37034;47.886;-3.904;2023-04-24T00:46:55;13.50;91.40
51007;DHT22;37034;47.886;-3.904;2023-04-24T00:49:21;13.40;91.40
51007;DHT22;37034;47.886;-3.904;2023-04-24T00:51:47;13.40;91.50
51007;DHT22;37034;47.886;-3.904;2023-04-24T00:54:15;13.50;91.60
51007;DHT22;37034;47.886;-3.904;2023-04-24T00:56:42;13.50;91.60
51007;DHT22;37034;47.886;-3.904;2023-04-24T00:59:08;13.60;91.60
51007;DHT22;37034;47.886;-3.904;2023-04-24T01:01:35;13.60;91.70
51007;DHT22;37034;47.886;-3.904;2023-04-24T01:04:01;13.60;91.60
51007;DHT22;37034;47.886;-3.904;2023-04-24T01:06:28;13.60;91.60
51007;DHT22;37034;47.886;-3.904;2023-04-24T01:08:57;13.50;91.60
51007;DHT22;37034;47.886;-3.904;2023-04-24T01:11:24;13.50;91.60
51007;DHT22;37034;47.886;-3.904;2023-04-24T01:13:51;13.50;91.60
51007;DHT22;37034;47.886;-3.904;2023-04-24T01:16:17;13.50;91.60
51007;DHT22;37034;47.886;-3.904;2023-04-24T01:18:45;13.50;91.80
51007;DHT22;37034;47.886;-3.904;2023-04-24T01:21:14;13.50;91.70
51007;DHT22;37034;47.886;-3.904;2023-04-24T01:23:40;13.60;91.80
51007;DHT22;37034;47.886;-3.904;2023-04-24T01:26:06;13.60;91.70
51007;DHT22;37034;47.886;-3.904;2023-04-24T01:28:31;13.60;91.70
51007;DHT22;37034;47.886;-3.904;2023-04-24T01:30:57;13.60;91.60
51007;DHT22;37034;47.886;-3.904;2023-04-24T01:33:23;13.60;91.60
51007;DHT22;37034;47.886;-3.904;2023-04-24T01:35:49;13.60;91.60
51007;DHT22;37034;47.886;-3.904;2023-04-24T01:38:15;13.60;91.80
51007;DHT22;37034;47.886;-3.904;2023-04-24T01:40:41;13.60;91.90
51007;DHT22;37034;47.886;-3.904;2023-04-24T01:43:07;13.60;91.70
51007;DHT22;37034;47.886;-3.904;2023-04-24T01:45:32;13.60;91.70
51007;DHT22;37034;47.886;-3.904;2023-04-24T01:47:58;13.50;91.80
51007;DHT22;37034;47.886;-3.904;2023-04-24T01:50:25;13.50;91.80
51007;DHT22;37034;47.886;-3.904;2023-04-24T01:52:51;13.60;91.90
51007;DHT22;37034;47.886;-3.904;2023-04-24T01:55:17;13.60;92.00
51007;DHT22;37034;47.886;-3.904;2023-04-24T01:57:43;13.60;91.90
51007;DHT22;37034;47.886;-3.904;2023-04-24T02:00:09;13.60;91.90
51007;DHT22;37034;47.886;-3.904;2023-04-24T02:02:37;13.60;91.90
51007;DHT22;37034;47.886;-3.904;2023-04-24T02:05:06;13.60;91.80
51007;DHT22;37034;47.886;-3.904;2023-04-24T02:07:32;13.60;91.90
51007;DHT22;37034;47.886;-3.904;2023-04-24T02:09:58;13.60;91.90
51007;DHT22;37034;47.886;-3.904;2023-04-24T02:12:24;13.60;91.90
51007;DHT22;37034;47.886;-3.904;2023-04-24T02:14:49;13.60;91.90
51007;DHT22;37034;47.886;-3.904;2023-04-24T02:17:15;13.60;91.90
51007;DHT22;37034;47.886;-3.904;2023-04-24T02:19:41;13.50;91.90
51007;DHT22;37034;47.886;-3.904;2023-04-24T02:22:07;13.50;92.00
51007;DHT22;37034;47.886;-3.904;2023-04-24T02:24:33;13.60;92.10
51007;DHT22;37034;47.886;-3.904;2023-04-24T02:26:58;13.60;92.10
51007;DHT22;37034;47.886;-3.904;2023-04-24T02:29:24;13.60;92.10
51007;DHT22;37034;47.886;-3.904;2023-04-24T02:31:50;13.60;92.10
51007;DHT22;37034;47.886;-3.904;2023-04-24T02:34:15;13.60;92.10
51007;DHT22;37034;47.886;-3.904;2023-04-24T02:36:41;13.60;92.10
51007;DHT22;37034;47.886;-3.904;2023-04-24T02:39:07;13.60;92.10
51007;DHT22;37034;47.886;-3.904;2023-04-24T02:41:33;13.60;92.20
51007;DHT22;37034;47.886;-3.904;2023-04-24T02:43:59;13.60;92.20
51007;DHT22;37034;47.886;-3.904;2023-04-24T02:46:25;13.60;92.20
51007;DHT22;37034;47.886;-3.904;2023-04-24T02:48:51;13.70;92.20
51007;DHT22;37034;47.886;-3.904;2023-04-24T02:51:16;13.70;92.20
51007;DHT22;37034;47.886;-3.904;2023-04-24T02:53:42;13.70;92.20
51007;DHT22;37034;47.886;-3.904;2023-04-24T02:56:08;13.70;92.10
51007;DHT22;37034;47.886;-3.904;2023-04-24T02:58:33;13.70;92.00
51007;DHT22;37034;47.886;-3.904;2023-04-24T03:00:59;13.60;92.00
51007;DHT22;37034;47.886;-3.904;2023-04-24T03:03:26;13.60;92.00
51007;DHT22;37034;47.886;-3.904;2023-04-24T03:05:51;13.50;91.90
51007;DHT22;37034;47.886;-3.904;2023-04-24T03:08:18;13.50;92.00
51007;DHT22;37034;47.886;-3.904;2023-04-24T03:10:43;13.40;91.90
51007;DHT22;37034;47.886;-3.904;2023-04-24T03:13:09;13.40;91.90
51007;DHT22;37034;47.886;-3.904;2023-04-24T03:15:35;13.40;92.10
51007;DHT22;37034;47.886;-3.904;2023-04-24T03:18:00;13.30;92.10
51007;DHT22;37034;47.886;-3.904;2023-04-24T03:20:28;13.30;92.30
51007;DHT22;37034;47.886;-3.904;2023-04-24T03:22:53;13.40;92.30
51007;DHT22;37034;47.886;-3.904;2023-04-24T03:25:19;13.40;92.40
51007;DHT22;37034;47.886;-3.904;2023-04-24T03:27:45;13.40;92.50
51007;DHT22;37034;47.886;-3.904;2023-04-24T03:30:10;13.40;92.50
51007;DHT22;37034;47.886;-3.904;2023-04-24T03:32:36;13.50;92.50
51007;DHT22;37034;47.886;-3.904;2023-04-24T03:35:02;13.50;92.40
51007;DHT22;37034;47.886;-3.904;2023-04-24T03:37:28;13.50;92.50
51007;DHT22;37034;47.886;-3.904;2023-04-24T03:39:54;13.50;92.60
51007;DHT22;37034;47.886;-3.904;2023-04-24T03:42:20;13.60;92.60
51007;DHT22;37034;47.886;-3.904;2023-04-24T03:44:45;13.60;92.60
51007;DHT22;37034;47.886;-3.904;2023-04-24T03:47:11;13.60;92.70
51007;DHT22;37034;47.886;-3.904;2023-04-24T03:49:37;13.60;92.80
51007;DHT22;37034;47.886;-3.904;2023-04-24T03:52:02;13.70;92.80
51007;DHT22;37034;47.886;-3.904;2023-04-24T03:54:28;13.70;92.80
51007;DHT22;37034;47.886;-3.904;2023-04-24T03:56:54;13.70;92.90
51007;DHT22;37034;47.886;-3.904;2023-04-24T03:59:19;13.70;93.00
51007;DHT22;37034;47.886;-3.904;2023-04-24T04:01:45;13.70;93.00
51007;DHT22;37034;47.886;-3.904;2023-04-24T04:04:11;13.80;93.10
51007;DHT22;37034;47.886;-3.904;2023-04-24T04:06:37;13.80;93.10
51007;DHT22;37034;47.886;-3.904;2023-04-24T04:09:03;13.80;93.20
51007;DHT22;37034;47.886;-3.904;2023-04-24T04:11:29;13.80;93.20
51007;DHT22;37034;47.886;-3.904;2023-04-24T04:13:55;13.80;93.20
51007;DHT22;37034;47.886;-3.904;2023-04-24T04:16:22;13.80;93.20
51007;DHT22;37034;47.886;-3.904;2023-04-24T04:18:48;13.80;93.20
51007;DHT22;37034;47.886;-3.904;2023-04-24T04:21:14;13.80;93.30
51007;DHT22;37034;47.886;-3.904;2023-04-24T04:23:39;13.90;93.50
51007;DHT22;37034;47.886;-3.904;2023-04-24T04:26:05;13.90;93.40
51007;DHT22;37034;47.886;-3.904;2023-04-24T04:28:31;13.80;93.20
51007;DHT22;37034;47.886;-3.904;2023-04-24T04:30:57;13.90;93.20
51007;DHT22;37034;47.886;-3.904;2023-04-24T04:33:24;13.90;93.20
51007;DHT22;37034;47.886;-3.904;2023-04-24T04:35:50;13.80;93.10
51007;DHT22;37034;47.886;-3.904;2023-04-24T04:38:18;13.80;93.00
51007;DHT22;37034;47.886;-3.904;2023-04-24T04:40:44;13.70;93.00
51007;DHT22;37034;47.886;-3.904;2023-04-24T04:43:10;13.70;92.90
51007;DHT22;37034;47.886;-3.904;2023-04-24T04:45:37;13.60;92.90
51007;DHT22;37034;47.886;-3.904;2023-04-24T04:48:04;13.50;92.90
51007;DHT22;37034;47.886;-3.904;2023-04-24T04:50:31;13.40;93.10
51007;DHT22;37034;47.886;-3.904;2023-04-24T04:52:57;13.40;93.20
51007;DHT22;37034;47.886;-3.904;2023-04-24T04:55:22;13.30;93.20
51007;DHT22;37034;47.886;-3.904;2023-04-24T04:57:48;13.30;93.20
51007;DHT22;37034;47.886;-3.904;2023-04-24T05:00:14;13.30;93.30
51007;DHT22;37034;47.886;-3.904;2023-04-24T05:02:41;13.30;93.30
51007;DHT22;37034;47.886;-3.904;2023-04-24T05:05:07;13.30;93.40
51007;DHT22;37034;47.886;-3.904;2023-04-24T05:07:33;13.30;93.40
51007;DHT22;37034;47.886;-3.904;2023-04-24T05:09:59;13.30;93.20
51007;DHT22;37034;47.886;-3.904;2023-04-24T05:12:24;13.30;93.30
51007;DHT22;37034;47.886;-3.904;2023-04-24T05:14:50;13.20;93.40
51007;DHT22;37034;47.886;-3.904;2023-04-24T05:17:16;13.20;93.70
51007;DHT22;37034;47.886;-3.904;2023-04-24T05:19:42;13.20;93.50
51007;DHT22;37034;47.886;-3.904;2023-04-24T05:22:08;13.20;93.60
51007;DHT22;37034;47.886;-3.904;2023-04-24T05:24:35;13.10;93.60
51007;DHT22;37034;47.886;-3.904;2023-04-24T05:27:04;13.10;93.60
51007;DHT22;37034;47.886;-3.904;2023-04-24T05:29:30;13.20;93.70
51007;DHT22;37034;47.886;-3.904;2023-04-24T05:31:57;13.10;93.70
51007;DHT22;37034;47.886;-3.904;2023-04-24T05:34:23;13.20;93.80
51007;DHT22;37034;47.886;-3.904;2023-04-24T05:36:49;13.20;93.90
51007;DHT22;37034;47.886;-3.904;2023-04-24T05:39:17;13.20;94.00
51007;DHT22;37034;47.886;-3.904;2023-04-24T05:41:43;13.20;94.00
51007;DHT22;37034;47.886;-3.904;2023-04-24T05:44:09;13.20;94.10
51007;DHT22;37034;47.886;-3.904;2023-04-24T05:46:35;13.30;94.10
51007;DHT22;37034;47.886;-3.904;2023-04-24T05:49:01;13.40;94.20
51007;DHT22;37034;47.886;-3.904;2023-04-24T05:51:27;13.40;94.20
51007;DHT22;37034;47.886;-3.904;2023-04-24T05:53:53;13.50;94.40
51007;DHT22;37034;47.886;-3.904;2023-04-24T05:56:19;13.50;94.20
51007;DHT22;37034;47.886;-3.904;2023-04-24T05:58:46;13.60;94.20
51007;DHT22;37034;47.886;-3.904;2023-04-24T06:01:12;13.70;94.10
51007;DHT22;37034;47.886;-3.904;2023-04-24T06:03:40;13.70;94.20
51007;DHT22;37034;47.886;-3.904;2023-04-24T06:06:07;13.70;94.20
51007;DHT22;37034;47.886;-3.904;2023-04-24T06:08:32;13.80;94.40
51007;DHT22;37034;47.886;-3.904;2023-04-24T06:10:58;13.90;94.50
51007;DHT22;37034;47.886;-3.904;2023-04-24T06:13:24;13.90;94.30
51007;DHT22;37034;47.886;-3.904;2023-04-24T06:15:50;14.00;94.10
51007;DHT22;37034;47.886;-3.904;2023-04-24T06:18:16;14.00;94.00
51007;DHT22;37034;47.886;-3.904;2023-04-24T06:20:42;14.00;94.20
51007;DHT22;37034;47.886;-3.904;2023-04-24T06:23:08;14.00;94.20
51007;DHT22;37034;47.886;-3.904;2023-04-24T06:25:34;14.10;94.20
51007;DHT22;37034;47.886;-3.904;2023-04-24T06:28:00;14.10;94.20
51007;DHT22;37034;47.886;-3.904;2023-04-24T06:30:25;14.10;94.00
51007;DHT22;37034;47.886;-3.904;2023-04-24T06:32:52;14.10;94.00
51007;DHT22;37034;47.886;-3.904;2023-04-24T06:35:18;14.10;94.00
51007;DHT22;37034;47.886;-3.904;2023-04-24T06:37:43;14.20;93.70
51007;DHT22;37034;47.886;-3.904;2023-04-24T06:40:09;14.10;93.90
51007;DHT22;37034;47.886;-3.904;2023-04-24T06:42:35;14.10;93.80
51007;DHT22;37034;47.886;-3.904;2023-04-24T06:45:02;14.10;93.90
51007;DHT22;37034;47.886;-3.904;2023-04-24T06:47:27;14.10;93.90
51007;DHT22;37034;47.886;-3.904;2023-04-24T06:49:53;14.10;94.00
51007;DHT22;37034;47.886;-3.904;2023-04-24T06:52:20;14.20;94.10
51007;DHT22;37034;47.886;-3.904;2023-04-24T06:54:46;14.20;94.00
51007;DHT22;37034;47.886;-3.904;2023-04-24T06:57:12;14.20;94.00
51007;DHT22;37034;47.886;-3.904;2023-04-24T06:59:38;14.20;94.10
51007;DHT22;37034;47.886;-3.904;2023-04-24T07:02:03;14.30;94.10
51007;DHT22;37034;47.886;-3.904;2023-04-24T07:04:30;14.30;94.10
51007;DHT22;37034;47.886;-3.904;2023-04-24T07:06:56;14.30;94.20
51007;DHT22;37034;47.886;-3.904;2023-04-24T07:09:24;14.40;94.30
51007;DHT22;37034;47.886;-3.904;2023-04-24T07:11:53;14.50;94.40
51007;DHT22;37034;47.886;-3.904;2023-04-24T07:14:19;14.60;94.40
51007;DHT22;37034;47.886;-3.904;2023-04-24T07:16:46;14.60;94.20
51007;DHT22;37034;47.886;-3.904;2023-04-24T07:19:13;14.70;94.00
51007;DHT22;37034;47.886;-3.904;2023-04-24T07:21:39;14.70;94.00
51007;DHT22;37034;47.886;-3.904;2023-04-24T07:24:05;14.70;94.00
51007;DHT22;37034;47.886;-3.904;2023-04-24T07:26:34;14.70;93.90
51007;DHT22;37034;47.886;-3.904;2023-04-24T07:29:00;14.70;93.90
51007;DHT22;37034;47.886;-3.904;2023-04-24T07:31:26;14.80;94.20
51007;DHT22;37034;47.886;-3.904;2023-04-24T07:33:51;14.90;94.40
51007;DHT22;37034;47.886;-3.904;2023-04-24T07:36:17;15.00;94.30
51007;DHT22;37034;47.886;-3.904;2023-04-24T07:38:48;15.10;94.30
51007;DHT22;37034;47.886;-3.904;2023-04-24T07:41:14;15.20;94.00
51007;DHT22;37034;47.886;-3.904;2023-04-24T07:43:40;15.30;94.10
51007;DHT22;37034;47.886;-3.904;2023-04-24T07:46:07;15.40;94.10
51007;DHT22;37034;47.886;-3.904;2023-04-24T07:48:32;15.40;94.10
51007;DHT22;37034;47.886;-3.904;2023-04-24T07:50:58;15.50;94.10
51007;DHT22;37034;47.886;-3.904;2023-04-24T07:53:24;15.60;93.90
51007;DHT22;37034;47.886;-3.904;2023-04-24T07:55:49;15.70;93.80
51007;DHT22;37034;47.886;-3.904;2023-04-24T07:58:15;15.70;93.60
51007;DHT22;37034;47.886;-3.904;2023-04-24T08:00:41;15.80;93.50
51007;DHT22;37034;47.886;-3.904;2023-04-24T08:03:07;15.80;93.50
51007;DHT22;37034;47.886;-3.904;2023-04-24T08:05:32;15.80;93.50
51007;DHT22;37034;47.886;-3.904;2023-04-24T08:07:58;15.80;93.80
51007;DHT22;37034;47.886;-3.904;2023-04-24T08:10:25;15.90;93.60
51007;DHT22;37034;47.886;-3.904;2023-04-24T08:12:52;15.90;93.50
51007;DHT22;37034;47.886;-3.904;2023-04-24T08:15:18;16.00;93.40
51007;DHT22;37034;47.886;-3.904;2023-04-24T08:17:44;16.10;93.50
51007;DHT22;37034;47.886;-3.904;2023-04-24T08:20:11;16.20;93.30
51007;DHT22;37034;47.886;-3.904;2023-04-24T08:22:43;16.20;93.20
51007;DHT22;37034;47.886;-3.904;2023-04-24T08:25:10;16.30;93.30
51007;DHT22;37034;47.886;-3.904;2023-04-24T08:27:36;16.40;93.30
51007;DHT22;37034;47.886;-3.904;2023-04-24T08:30:03;16.40;93.30
51007;DHT22;37034;47.886;-3.904;2023-04-24T08:32:37;16.60;93.00
51007;DHT22;37034;47.886;-3.904;2023-04-24T08:35:06;16.60;93.00
51007;DHT22;37034;47.886;-3.904;2023-04-24T08:37:34;16.70;93.10
51007;DHT22;37034;47.886;-3.904;2023-04-24T08:40:13;16.80;93.10
51007;DHT22;37034;47.886;-3.904;2023-04-24T08:42:57;16.80;92.30
51007;DHT22;37034;47.886;-3.904;2023-04-24T08:45:24;16.80;92.10
51007;DHT22;37034;47.886;-3.904;2023-04-24T08:47:53;16.70;92.40
51007;DHT22;37034;47.886;-3.904;2023-04-24T08:50:21;16.70;92.30
51007;DHT22;37034;47.886;-3.904;2023-04-24T08:52:50;16.70;92.40
51007;DHT22;37034;47.886;-3.904;2023-04-24T08:55:19;16.60;92.40
51007;DHT22;37034;47.886;-3.904;2023-04-24T08:57:52;16.60;92.30
51007;DHT22;37034;47.886;-3.904;2023-04-24T09:00:22;16.50;91.70
51007;DHT22;37034;47.886;-3.904;2023-04-24T09:02:49;16.40;92.20
51007;DHT22;37034;47.886;-3.904;2023-04-24T09:05:16;16.40;92.70
51007;DHT22;37034;47.886;-3.904;2023-04-24T09:07:47;16.50;92.20
51007;DHT22;37034;47.886;-3.904;2023-04-24T09:10:16;16.50;92.40
51007;DHT22;37034;47.886;-3.904;2023-04-24T09:12:42;16.60;92.30
51007;DHT22;37034;47.886;-3.904;2023-04-24T09:15:10;16.70;92.00
51007;DHT22;37034;47.886;-3.904;2023-04-24T09:17:36;16.90;92.20
51007;DHT22;37034;47.886;-3.904;2023-04-24T09:20:02;17.10;92.10
51007;DHT22;37034;47.886;-3.904;2023-04-24T09:22:31;17.20;91.50
51007;DHT22;37034;47.886;-3.904;2023-04-24T09:25:05;17.20;91.60
51007;DHT22;37034;47.886;-3.904;2023-04-24T09:27:35;17.20;91.20
51007;DHT22;37034;47.886;-3.904;2023-04-24T09:30:01;17.30;91.10
51007;DHT22;37034;47.886;-3.904;2023-04-24T09:32:27;17.20;90.90
51007;DHT22;37034;47.886;-3.904;2023-04-24T09:35:15;17.30;90.80
51007;DHT22;37034;47.886;-3.904;2023-04-24T09:37:46;17.40;91.10
51007;DHT22;37034;47.886;-3.904;2023-04-24T09:40:19;17.40;91.20
51007;DHT22;37034;47.886;-3.904;2023-04-24T09:42:54;17.50;90.90
51007;DHT22;37034;47.886;-3.904;2023-04-24T09:45:20;17.50;90.80
51007;DHT22;37034;47.886;-3.904;2023-04-24T09:47:51;17.40;91.10
51007;DHT22;37034;47.886;-3.904;2023-04-24T09:50:18;17.40;91.20
51007;DHT22;37034;47.886;-3.904;2023-04-24T09:52:46;17.40;91.60
51007;DHT22;37034;47.886;-3.904;2023-04-24T09:55:20;17.50;91.90
51007;DHT22;37034;47.886;-3.904;2023-04-24T09:57:58;17.70;92.40
51007;DHT22;37034;47.886;-3.904;2023-04-24T10:00:30;17.90;92.20
51007;DHT22;37034;47.886;-3.904;2023-04-24T10:03:00;18.10;91.60
51007;DHT22;37034;47.886;-3.904;2023-04-24T10:08:00;18.30;91.20
51007;DHT22;37034;47.886;-3.904;2023-04-24T10:10:26;18.20;90.90
51007;DHT22;37034;47.886;-3.904;2023-04-24T10:12:52;18.30;90.50
51007;DHT22;37034;47.886;-3.904;2023-04-24T10:15:19;18.30;90.30
51007;DHT22;37034;47.886;-3.904;2023-04-24T10:17:48;18.20;89.90
51007;DHT22;37034;47.886;-3.904;2023-04-24T10:20:20;18.10;89.50
51007;DHT22;37034;47.886;-3.904;2023-04-24T10:22:48;18.00;90.00
51007;DHT22;37034;47.886;-3.904;2023-04-24T10:25:21;18.00;88.50
51007;DHT22;37034;47.886;-3.904;2023-04-24T10:27:48;17.90;89.70
51007;DHT22;37034;47.886;-3.904;2023-04-24T10:30:15;17.80;89.10
51007;DHT22;37034;47.886;-3.904;2023-04-24T10:32:41;17.80;88.80
51007;DHT22;37034;47.886;-3.904;2023-04-24T10:35:07;17.80;89.30
51007;DHT22;37034;47.886;-3.904;2023-04-24T10:40:29;17.90;89.30
51007;DHT22;37034;47.886;-3.904;2023-04-24T10:42:56;18.00;89.20
51007;DHT22;37034;47.886;-3.904;2023-04-24T10:45:23;18.10;89.20
51007;DHT22;37034;47.886;-3.904;2023-04-24T10:48:08;18.30;89.60
51007;DHT22;37034;47.886;-3.904;2023-04-24T10:53:21;18.20;88.90
51007;DHT22;37034;47.886;-3.904;2023-04-24T10:55:56;18.30;88.60
51007;DHT22;37034;47.886;-3.904;2023-04-24T10:58:23;18.50;88.00
51007;DHT22;37034;47.886;-3.904;2023-04-24T11:01:00;18.60;87.60
51007;DHT22;37034;47.886;-3.904;2023-04-24T11:03:27;18.50;87.50
51007;DHT22;37034;47.886;-3.904;2023-04-24T11:16:52;18.90;85.20
51007;DHT22;37034;47.886;-3.904;2023-04-24T11:19:21;18.90;84.80
51007;DHT22;37034;47.886;-3.904;2023-04-24T11:22:04;18.80;86.20
51007;DHT22;37034;47.886;-3.904;2023-04-24T11:27:11;19.00;85.80
51007;DHT22;37034;47.886;-3.904;2023-04-24T11:32:27;18.80;84.30
51007;DHT22;37034;47.886;-3.904;2023-04-24T11:37:43;18.70;85.30
51007;DHT22;37034;47.886;-3.904;2023-04-24T11:40:12;18.60;84.20
51007;DHT22;37034;47.886;-3.904;2023-04-24T11:42:46;18.70;84.40
51007;DHT22;37034;47.886;-3.904;2023-04-24T11:45:14;18.70;84.40
51007;DHT22;37034;47.886;-3.904;2023-04-24T11:47:41;18.70;82.70
51007;DHT22;37034;47.886;-3.904;2023-04-24T11:50:10;18.90;83.00
51007;DHT22;37034;47.886;-3.904;2023-04-24T11:52:40;18.90;82.00
51007;DHT22;37034;47.886;-3.904;2023-04-24T11:55:12;18.90;82.20
51007;DHT22;37034;47.886;-3.904;2023-04-24T11:57:49;18.90;82.90
51007;DHT22;37034;47.886;-3.904;2023-04-24T12:02:42;19.20;82.90
51007;DHT22;37034;47.886;-3.904;2023-04-24T12:05:08;19.10;81.30
51007;DHT22;37034;47.886;-3.904;2023-04-24T12:07:41;19.10;80.90
51007;DHT22;37034;47.886;-3.904;2023-04-24T12:10:10;19.10;82.80
51007;DHT22;37034;47.886;-3.904;2023-04-24T12:12:36;19.30;81.50
51007;DHT22;37034;47.886;-3.904;2023-04-24T12:15:06;19.40;81.10
51007;DHT22;37034;47.886;-3.904;2023-04-24T12:17:33;19.50;82.00
51007;DHT22;37034;47.886;-3.904;2023-04-24T12:20:02;19.50;82.00
51007;DHT22;37034;47.886;-3.904;2023-04-24T12:22:45;19.50;81.90
51007;DHT22;37034;47.886;-3.904;2023-04-24T12:25:11;19.50;81.00
51007;DHT22;37034;47.886;-3.904;2023-04-24T12:27:37;19.20;82.30
51007;DHT22;37034;47.886;-3.904;2023-04-24T12:30:05;19.20;83.20
51007;DHT22;37034;47.886;-3.904;2023-04-24T12:32:31;19.30;82.00
51007;DHT22;37034;47.886;-3.904;2023-04-24T12:34:57;19.60;83.30
51007;DHT22;37034;47.886;-3.904;2023-04-24T12:37:31;19.70;81.60
51007;DHT22;37034;47.886;-3.904;2023-04-24T12:42:28;19.60;81.70
51007;DHT22;37034;47.886;-3.904;2023-04-24T12:45:05;19.70;81.30
51007;DHT22;37034;47.886;-3.904;2023-04-24T12:47:32;19.80;80.60
51007;DHT22;37034;47.886;-3.904;2023-04-24T12:49:58;19.80;79.60
51007;DHT22;37034;47.886;-3.904;2023-04-24T12:52:24;19.70;80.00
51007;DHT22;37034;47.886;-3.904;2023-04-24T12:54:53;19.70;80.60
51007;DHT22;37034;47.886;-3.904;2023-04-24T12:57:18;19.60;81.70
51007;DHT22;37034;47.886;-3.904;2023-04-24T12:59:44;19.70;81.00
51007;DHT22;37034;47.886;-3.904;2023-04-24T13:02:11;19.70;80.20
51007;DHT22;37034;47.886;-3.904;2023-04-24T13:04:37;19.70;80.10
51007;DHT22;37034;47.886;-3.904;2023-04-24T13:07:03;19.50;80.00
51007;DHT22;37034;47.886;-3.904;2023-04-24T13:09:28;19.50;81.50
51007;DHT22;37034;47.886;-3.904;2023-04-24T13:11:55;19.60;81.40
51007;DHT22;37034;47.886;-3.904;2023-04-24T13:14:22;19.70;81.90
51007;DHT22;37034;47.886;-3.904;2023-04-24T13:16:48;19.90;81.00
51007;DHT22;37034;47.886;-3.904;2023-04-24T13:19:13;20.00;81.00
51007;DHT22;37034;47.886;-3.904;2023-04-24T13:21:39;20.10;81.30
51007;DHT22;37034;47.886;-3.904;2023-04-24T13:24:05;20.20;79.50
51007;DHT22;37034;47.886;-3.904;2023-04-24T13:26:33;20.20;78.60
51007;DHT22;37034;47.886;-3.904;2023-04-24T13:28:58;20.00;79.60
51007;DHT22;37034;47.886;-3.904;2023-04-24T13:31:24;20.20;79.70
51007;DHT22;37034;47.886;-3.904;2023-04-24T13:33:50;20.30;80.60
51007;DHT22;37034;47.886;-3.904;2023-04-24T13:36:16;20.40;79.00
51007;DHT22;37034;47.886;-3.904;2023-04-24T13:38:43;20.50;79.30
51007;DHT22;37034;47.886;-3.904;2023-04-24T13:41:09;20.30;76.70
51007;DHT22;37034;47.886;-3.904;2023-04-24T13:43:35;20.20;78.80
51007;DHT22;37034;47.886;-3.904;2023-04-24T13:46:01;20.30;77.30
51007;DHT22;37034;47.886;-3.904;2023-04-24T13:48:29;20.10;77.60
51007;DHT22;37034;47.886;-3.904;2023-04-24T13:50:54;20.00;77.70
51007;DHT22;37034;47.886;-3.904;2023-04-24T13:53:20;20.10;78.10
51007;DHT22;37034;47.886;-3.904;2023-04-24T13:55:46;19.90;76.90
51007;DHT22;37034;47.886;-3.904;2023-04-24T13:58:11;19.90;76.50
51007;DHT22;37034;47.886;-3.904;2023-04-24T14:00:37;19.90;77.20
51007;DHT22;37034;47.886;-3.904;2023-04-24T14:03:03;19.90;77.40
51007;DHT22;37034;47.886;-3.904;2023-04-24T14:05:29;20.00;78.30
51007;DHT22;37034;47.886;-3.904;2023-04-24T14:07:54;20.10;78.00
51007;DHT22;37034;47.886;-3.904;2023-04-24T14:10:20;20.30;77.00
51007;DHT22;37034;47.886;-3.904;2023-04-24T14:12:46;20.20;75.20
51007;DHT22;37034;47.886;-3.904;2023-04-24T14:15:11;20.20;77.20
51007;DHT22;37034;47.886;-3.904;2023-04-24T14:17:39;20.30;77.10
51007;DHT22;37034;47.886;-3.904;2023-04-24T14:20:05;20.50;76.10
51007;DHT22;37034;47.886;-3.904;2023-04-24T14:22:32;20.40;76.00
51007;DHT22;37034;47.886;-3.904;2023-04-24T14:24:58;20.40;74.70
51007;DHT22;37034;47.886;-3.904;2023-04-24T14:27:24;20.20;76.10
51007;DHT22;37034;47.886;-3.904;2023-04-24T14:29:50;20.10;75.80
51007;DHT22;37034;47.886;-3.904;2023-04-24T14:32:16;20.10;76.60
51007;DHT22;37034;47.886;-3.904;2023-04-24T14:34:41;19.90;76.60
51007;DHT22;37034;47.886;-3.904;2023-04-24T14:37:07;19.90;77.00
51007;DHT22;37034;47.886;-3.904;2023-04-24T14:39:33;20.00;76.30
51007;DHT22;37034;47.886;-3.904;2023-04-24T14:41:59;20.10;77.50
51007;DHT22;37034;47.886;-3.904;2023-04-24T14:44:25;20.30;77.90
51007;DHT22;37034;47.886;-3.904;2023-04-24T14:46:51;20.40;75.50
51007;DHT22;37034;47.886;-3.904;2023-04-24T14:49:17;20.30;75.30
51007;DHT22;37034;47.886;-3.904;2023-04-24T14:51:42;20.30;75.90
51007;DHT22;37034;47.886;-3.904;2023-04-24T14:54:08;19.90;74.20
51007;DHT22;37034;47.886;-3.904;2023-04-24T14:56:34;19.90;75.00
51007;DHT22;37034;47.886;-3.904;2023-04-24T14:59:00;20.00;76.00
51007;DHT22;37034;47.886;-3.904;2023-04-24T15:01:26;20.00;75.50
51007;DHT22;37034;47.886;-3.904;2023-04-24T15:03:51;19.90;75.10
51007;DHT22;37034;47.886;-3.904;2023-04-24T15:06:17;19.90;74.50
51007;DHT22;37034;47.886;-3.904;2023-04-24T15:08:43;19.90;75.30
51007;DHT22;37034;47.886;-3.904;2023-04-24T15:11:10;19.80;75.60
51007;DHT22;37034;47.886;-3.904;2023-04-24T15:13:36;19.80;75.50
51007;DHT22;37034;47.886;-3.904;2023-04-24T15:16:01;19.80;76.30
51007;DHT22;37034;47.886;-3.904;2023-04-24T15:18:27;19.90;76.00
51007;DHT22;37034;47.886;-3.904;2023-04-24T15:20:55;19.90;75.20
51007;DHT22;37034;47.886;-3.904;2023-04-24T15:23:20;20.00;76.40
51007;DHT22;37034;47.886;-3.904;2023-04-24T15:25:46;20.10;75.50
51007;DHT22;37034;47.886;-3.904;2023-04-24T15:28:12;20.10;75.50
51007;DHT22;37034;47.886;-3.904;2023-04-24T15:30:38;20.20;75.80
51007;DHT22;37034;47.886;-3.904;2023-04-24T15:33:03;20.20;74.90
51007;DHT22;37034;47.886;-3.904;2023-04-24T15:35:29;20.20;74.40
51007;DHT22;37034;47.886;-3.904;2023-04-24T15:37:55;19.90;74.40
51007;DHT22;37034;47.886;-3.904;2023-04-24T15:40:21;20.00;74.50
51007;DHT22;37034;47.886;-3.904;2023-04-24T15:42:48;19.90;74.50
51007;DHT22;37034;47.886;-3.904;2023-04-24T15:45:13;19.90;75.20